sensor_id;sensor_type;location;lat;lon;timestamp;temperature;humidity
22838;DHT22;11585;51.450;-0.240;2023-07-30T00:02:21;19.30;99.90
22838;DHT22;11585;51.450;-0.240;2023-07-30T00:04:48;19.30;99.90
22838;DHT22;11585;51.450;-0.240;2023-07-30T00:07:14;19.30;99.90
22838;DHT22;11585;51.450;-0.240;2023-07-30T00:09:40;19.30;99.90
22838;DHT22;11585;51.450;-0.240;2023-07-30T00:12:06;19.30;99.90
22838;DHT22;11585;51.450;-0.240;2023-07-30T00:14:32;19.30;99.90
22838;DHT22;11585;51.450;-0.240;2023-07-30T00:19:45;19.30;99.90
22838;DHT22;11585;51.450;-0.240;2023-07-30T00:22:11;19.20;99.90
22838;DHT22;11585;51.450;-0.240;2023-07-30T00:24:36;19.20;99.90
22838;DHT22;11585;51.450;-0.240;2023-07-30T00:27:02;19.20;99.90
22838;DHT22;11585;51.450;-0.240;2023-07-30T00:29:28;19.20;99.90
22838;DHT22;11585;51.450;-0.240;2023-07-30T00:31:53;19.20;99.90
22838;DHT22;11585;51.450;-0.240;2023-07-30T00:34:19;19.20;99.90
22838;DHT22;11585;51.450;-0.240;2023-07-30T00:40:07;19.20;99.90
22838;DHT22;11585;51.450;-0.240;2023-07-30T00:42:32;19.10;99.90
22838;DHT22;11585;51.450;-0.240;2023-07-30T00:45:18;19.10;99.90
22838;DHT22;11585;51.450;-0.240;2023-07-30T00:48:04;19.10;99.90
22838;DHT22;11585;51.450;-0.240;2023-07-30T00:50:30;19.10;99.90
22838;DHT22;11585;51.450;-0.240;2023-07-30T00:52:57;19.10;99.90
22838;DHT22;11585;51.450;-0.240;2023-07-30T00:55:44;19.10;99.90
22838;DHT22;11585;51.450;-0.240;2023-07-30T00:58:10;19.10;99.90
22838;DHT22;11585;51.450;-0.240;2023-07-30T01:00:36;19.10;99.90
22838;DHT22;11585;51.450;-0.240;2023-07-30T01:03:02;19.10;99.90
22838;DHT22;11585;51.450;-0.240;2023-07-30T01:08:50;19.10;99.90
22838;DHT22;11585;51.450;-0.240;2023-07-30T01:11:16;19.00;99.90
22838;DHT22;11585;51.450;-0.240;2023-07-30T01:13:43;19.00;99.90
22838;DHT22;11585;51.450;-0.240;2023-07-30T01:19:31;19.00;99.90
22838;DHT22;11585;51.450;-0.240;2023-07-30T01:21:58;19.00;99.90
22838;DHT22;11585;51.450;-0.240;2023-07-30T01:24:23;19.00;99.90
22838;DHT22;11585;51.450;-0.240;2023-07-30T01:26:55;19.00;99.90
22838;DHT22;11585;51.450;-0.240;2023-07-30T01:29:27;19.00;99.90
22838;DHT22;11585;51.450;-0.240;2023-07-30T01:31:56;19.00;99.90
22838;DHT22;11585;51.450;-0.240;2023-07-30T01:34:27;19.00;99.90
22838;DHT22;11585;51.450;-0.240;2023-07-30T01:37:13;19.00;99.90
22838;DHT22;11585;51.450;-0.240;2023-07-30T01:39:40;19.00;99.90
22838;DHT22;11585;51.450;-0.240;2023-07-30T01:42:07;19.00;99.90
22838;DHT22;11585;51.450;-0.240;2023-07-30T01:44:33;19.00;99.90
22838;DHT22;11585;51.450;-0.240;2023-07-30T01:50:21;19.00;99.90
22838;DHT22;11585;51.450;-0.240;2023-07-30T01:52:46;18.90;99.90
22838;DHT22;11585;51.450;-0.240;2023-07-30T01:55:33;18.90;99.90
22838;DHT22;11585;51.450;-0.240;2023-07-30T01:57:59;18.90;99.90
22838;DHT22;11585;51.450;-0.240;2023-07-30T02:00:24;19.00;99.90
22838;DHT22;11585;51.450;-0.240;2023-07-30T02:02:50;18.90;99.90
22838;DHT22;11585;51.450;-0.240;2023-07-30T02:08:58;18.90;99.90
22838;DHT22;11585;51.450;-0.240;2023-07-30T02:11:27;18.90;99.90
22838;DHT22;11585;51.450;-0.240;2023-07-30T02:13:53;18.90;99.90
22838;DHT22;11585;51.450;-0.240;2023-07-30T02:19:42;18.90;99.90
22838;DHT22;11585;51.450;-0.240;2023-07-30T02:22:07;18.80;99.90
22838;DHT22;11585;51.450;-0.240;2023-07-30T02:24:35;18.80;99.90
22838;DHT22;11585;51.450;-0.240;2023-07-30T02:30:23;18.90;99.90
22838;DHT22;11585;51.450;-0.240;2023-07-30T02:32:49;18.80;99.90
22838;DHT22;11585;51.450;-0.240;2023-07-30T02:48:28;18.80;99.90
22838;DHT22;11585;51.450;-0.240;2023-07-30T02:53:58;18.80;99.90
22838;DHT22;11585;51.450;-0.240;2023-07-30T02:56:47;18.80;99.90
22838;DHT22;11585;51.450;-0.240;2023-07-30T02:59:13;18.80;99.90
22838;DHT22;11585;51.450;-0.240;2023-07-30T03:01:39;18.80;99.90
22838;DHT22;11585;51.450;-0.240;2023-07-30T03:04:04;18.70;99.90
22838;DHT22;11585;51.450;-0.240;2023-07-30T03:09:52;18.80;99.90
22838;DHT22;11585;51.450;-0.240;2023-07-30T03:12:18;18.70;99.90
22838;DHT22;11585;51.450;-0.240;2023-07-30T03:14:43;18.70;99.90
22838;DHT22;11585;51.450;-0.240;2023-07-30T03:17:09;18.70;99.90
22838;DHT22;11585;51.450;-0.240;2023-07-30T03:19:34;18.70;99.90
22838;DHT22;11585;51.450;-0.240;2023-07-30T03:22:00;18.70;99.90
22838;DHT22;11585;51.450;-0.240;2023-07-30T03:24:26;18.70;99.90
22838;DHT22;11585;51.450;-0.240;2023-07-30T03:30:13;18.60;99.90
22838;DHT22;11585;51.450;-0.240;2023-07-30T03:32:38;18.60;99.90
22838;DHT22;11585;51.450;-0.240;2023-07-30T03:38:28;18.60;99.90
22838;DHT22;11585;51.450;-0.240;2023-07-30T03:40:53;18.50;99.90
22838;DHT22;11585;51.450;-0.240;2023-07-30T03:43:19;18.50;99.90
22838;DHT22;11585;51.450;-0.240;2023-07-30T03:49:06;18.50;99.90
22838;DHT22;11585;51.450;-0.240;2023-07-30T03:51:51;18.50;99.90
22838;DHT22;11585;51.450;-0.240;2023-07-30T03:54:17;18.50;99.90
22838;DHT22;11585;51.450;-0.240;2023-07-30T03:57:03;18.50;99.90
22838;DHT22;11585;51.450;-0.240;2023-07-30T03:59:28;18.50;99.90
22838;DHT22;11585;51.450;-0.240;2023-07-30T04:01:54;18.40;99.90
22838;DHT22;11585;51.450;-0.240;2023-07-30T04:04:20;18.40;99.90
22838;DHT22;11585;51.450;-0.240;2023-07-30T04:06:48;18.40;99.90
22838;DHT22;11585;51.450;-0.240;2023-07-30T04:09:14;18.40;99.90
22838;DHT22;11585;51.450;-0.240;2023-07-30T04:11:39;18.40;99.90
22838;DHT22;11585;51.450;-0.240;2023-07-30T04:14:05;18.40;99.90
22838;DHT22;11585;51.450;-0.240;2023-07-30T04:16:33;18.40;99.90
22838;DHT22;11585;51.450;-0.240;2023-07-30T04:18:59;18.40;99.90
22838;DHT22;11585;51.450;-0.240;2023-07-30T04:21:24;18.40;99.90
22838;DHT22;11585;51.450;-0.240;2023-07-30T04:23:50;18.40;99.90
22838;DHT22;11585;51.450;-0.240;2023-07-30T04:26:21;18.30;99.90
22838;DHT22;11585;51.450;-0.240;2023-07-30T04:28:47;18.30;99.90
22838;DHT22;11585;51.450;-0.240;2023-07-30T04:31:12;18.30;99.90
22838;DHT22;11585;51.450;-0.240;2023-07-30T04:33:38;18.30;99.90
22838;DHT22;11585;51.450;-0.240;2023-07-30T04:36:04;18.20;99.90
22838;DHT22;11585;51.450;-0.240;2023-07-30T04:38:29;18.20;99.90
22838;DHT22;11585;51.450;-0.240;2023-07-30T04:40:58;18.20;99.90
22838;DHT22;11585;51.450;-0.240;2023-07-30T04:43:23;18.20;99.90
22838;DHT22;11585;51.450;-0.240;2023-07-30T04:49:12;18.20;99.90
22838;DHT22;11585;51.450;-0.240;2023-07-30T04:51:37;18.20;99.90
22838;DHT22;11585;51.450;-0.240;2023-07-30T04:54:03;18.10;99.90
22838;DHT22;11585;51.450;-0.240;2023-07-30T04:59:34;18.10;99.90
22838;DHT22;11585;51.450;-0.240;2023-07-30T05:02:00;18.10;99.90
22838;DHT22;11585;51.450;-0.240;2023-07-30T05:04:26;18.10;99.90
22838;DHT22;11585;51.450;-0.240;2023-07-30T05:06:56;18.10;99.90
22838;DHT22;11585;51.450;-0.240;2023-07-30T05:09:22;18.10;99.90
22838;DHT22;11585;51.450;-0.240;2023-07-30T05:11:47;18.10;99.90
22838;DHT22;11585;51.450;-0.240;2023-07-30T05:14:13;18.10;99.90
22838;DHT22;11585;51.450;-0.240;2023-07-30T05:20:00;18.10;99.90
22838;DHT22;11585;51.450;-0.240;2023-07-30T05:22:26;18.10;99.90
22838;DHT22;11585;51.450;-0.240;2023-07-30T05:24:52;18.00;99.90
22838;DHT22;11585;51.450;-0.240;2023-07-30T05:27:18;18.00;99.90
22838;DHT22;11585;51.450;-0.240;2023-07-30T05:29:44;18.10;99.90
22838;DHT22;11585;51.450;-0.240;2023-07-30T05:32:09;18.00;99.90
22838;DHT22;11585;51.450;-0.240;2023-07-30T05:34:35;18.00;99.90
22838;DHT22;11585;51.450;-0.240;2023-07-30T05:40:06;18.10;99.90
22838;DHT22;11585;51.450;-0.240;2023-07-30T05:42:32;18.00;99.90
22838;DHT22;11585;51.450;-0.240;2023-07-30T05:45:04;18.00;99.90
22838;DHT22;11585;51.450;-0.240;2023-07-30T05:47:29;18.10;99.90
22838;DHT22;11585;51.450;-0.240;2023-07-30T05:49:55;18.00;99.90
22838;DHT22;11585;51.450;-0.240;2023-07-30T05:52:27;18.00;99.90
22838;DHT22;11585;51.450;-0.240;2023-07-30T06:02:40;18.00;99.90
22838;DHT22;11585;51.450;-0.240;2023-07-30T06:08:03;18.00;99.90
22838;DHT22;11585;51.450;-0.240;2023-07-30T06:17:10;18.00;99.90
22838;DHT22;11585;51.450;-0.240;2023-07-30T06:19:36;18.00;99.90
22838;DHT22;11585;51.450;-0.240;2023-07-30T06:22:02;18.00;99.90
22838;DHT22;11585;51.450;-0.240;2023-07-30T06:24:29;18.00;99.90
22838;DHT22;11585;51.450;-0.240;2023-07-30T06:27:17;18.00;99.90
22838;DHT22;11585;51.450;-0.240;2023-07-30T06:29:43;18.00;99.90
22838;DHT22;11585;51.450;-0.240;2023-07-30T06:32:08;18.00;99.90
22838;DHT22;11585;51.450;-0.240;2023-07-30T06:34:34;18.00;99.90
22838;DHT22;11585;51.450;-0.240;2023-07-30T06:37:03;18.00;99.90
22838;DHT22;11585;51.450;-0.240;2023-07-30T06:39:29;18.10;99.90
22838;DHT22;11585;51.450;-0.240;2023-07-30T06:41:54;18.10;99.90
22838;DHT22;11585;51.450;-0.240;2023-07-30T06:44:20;18.10;99.90
22838;DHT22;11585;51.450;-0.240;2023-07-30T06:46:47;18.10;99.90
22838;DHT22;11585;51.450;-0.240;2023-07-30T06:52:44;18.10;99.90
22838;DHT22;11585;51.450;-0.240;2023-07-30T06:55:10;18.10;99.90
22838;DHT22;11585;51.450;-0.240;2023-07-30T06:57:36;18.10;99.90
22838;DHT22;11585;51.450;-0.240;2023-07-30T07:00:02;18.10;99.90
22838;DHT22;11585;51.450;-0.240;2023-07-30T07:02:28;18.10;99.90
22838;DHT22;11585;51.450;-0.240;2023-07-30T07:08:16;18.20;99.90
22838;DHT22;11585;51.450;-0.240;2023-07-30T07:10:44;18.20;99.90
22838;DHT22;11585;51.450;-0.240;2023-07-30T07:13:09;18.20;99.90
22838;DHT22;11585;51.450;-0.240;2023-07-30T07:18:57;18.20;99.90
22838;DHT22;11585;51.450;-0.240;2023-07-30T07:21:23;18.20;99.90
22838;DHT22;11585;51.450;-0.240;2023-07-30T07:23:49;18.30;99.90
22838;DHT22;11585;51.450;-0.240;2023-07-30T07:29:37;18.40;99.90
22838;DHT22;11585;51.450;-0.240;2023-07-30T07:32:03;18.40;99.90
22838;DHT22;11585;51.450;-0.240;2023-07-30T07:34:29;18.40;99.90
22838;DHT22;11585;51.450;-0.240;2023-07-30T07:43:39;18.50;99.90
22838;DHT22;11585;51.450;-0.240;2023-07-30T07:46:05;18.50;99.90
22838;DHT22;11585;51.450;-0.240;2023-07-30T07:48:35;18.60;99.90
22838;DHT22;11585;51.450;-0.240;2023-07-30T07:51:00;18.60;99.90
22838;DHT22;11585;51.450;-0.240;2023-07-30T07:53:26;18.60;99.90
22838;DHT22;11585;51.450;-0.240;2023-07-30T07:55:52;18.70;99.90
22838;DHT22;11585;51.450;-0.240;2023-07-30T07:58:17;18.70;99.90
22838;DHT22;11585;51.450;-0.240;2023-07-30T08:00:43;18.70;99.90
22838;DHT22;11585;51.450;-0.240;2023-07-30T08:03:08;18.80;99.90
22838;DHT22;11585;51.450;-0.240;2023-07-30T08:05:35;18.80;99.90
22838;DHT22;11585;51.450;-0.240;2023-07-30T08:08:01;18.80;99.90
22838;DHT22;11585;51.450;-0.240;2023-07-30T08:10:27;18.80;99.90
22838;DHT22;11585;51.450;-0.240;2023-07-30T08:12:52;18.90;99.90
22838;DHT22;11585;51.450;-0.240;2023-07-30T08:18:27;19.00;99.90
22838;DHT22;11585;51.450;-0.240;2023-07-30T08:20:53;19.00;99.90
22838;DHT22;11585;51.450;-0.240;2023-07-30T08:23:18;19.00;99.90
22838;DHT22;11585;51.450;-0.240;2023-07-30T08:29:06;19.00;99.90
22838;DHT22;11585;51.450;-0.240;2023-07-30T08:31:35;19.00;99.90
22838;DHT22;11585;51.450;-0.240;2023-07-30T08:34:01;19.00;99.90
22838;DHT22;11585;51.450;-0.240;2023-07-30T08:36:47;19.00;99.90
22838;DHT22;11585;51.450;-0.240;2023-07-30T08:39:12;19.10;99.90
22838;DHT22;11585;51.450;-0.240;2023-07-30T08:41:47;19.10;99.90
22838;DHT22;11585;51.450;-0.240;2023-07-30T08:44:27;19.10;99.90
22838;DHT22;11585;51.450;-0.240;2023-07-30T08:46:53;19.10;99.90
22838;DHT22;11585;51.450;-0.240;2023-07-30T08:49:19;19.20;99.90
22838;DHT22;11585;51.450;-0.240;2023-07-30T08:51:45;19.20;99.90
22838;DHT22;11585;51.450;-0.240;2023-07-30T08:54:12;19.20;99.90
22838;DHT22;11585;51.450;-0.240;2023-07-30T08:57:01;19.20;99.90
22838;DHT22;11585;51.450;-0.240;2023-07-30T08:59:33;19.30;99.90
22838;DHT22;11585;51.450;-0.240;2023-07-30T09:02:02;19.30;99.90
22838;DHT22;11585;51.450;-0.240;2023-07-30T09:04:30;19.30;99.90
22838;DHT22;11585;51.450;-0.240;2023-07-30T09:07:00;19.30;99.90
22838;DHT22;11585;51.450;-0.240;2023-07-30T09:09:30;19.30;99.90
22838;DHT22;11585;51.450;-0.240;2023-07-30T09:11:56;19.30;99.90
22838;DHT22;11585;51.450;-0.240;2023-07-30T09:14:22;19.40;99.90
22838;DHT22;11585;51.450;-0.240;2023-07-30T09:19:53;19.40;99.90
22838;DHT22;11585;51.450;-0.240;2023-07-30T09:22:23;19.40;99.90
22838;DHT22;11585;51.450;-0.240;2023-07-30T09:24:49;19.50;99.90
22838;DHT22;11585;51.450;-0.240;2023-07-30T09:27:23;19.50;99.90
22838;DHT22;11585;51.450;-0.240;2023-07-30T09:29:51;19.50;99.90
22838;DHT22;11585;51.450;-0.240;2023-07-30T09:32:17;19.50;99.90
22838;DHT22;11585;51.450;-0.240;2023-07-30T09:34:45;19.60;99.90
22838;DHT22;11585;51.450;-0.240;2023-07-30T09:37:10;19.60;99.90
22838;DHT22;11585;51.450;-0.240;2023-07-30T09:39:37;19.60;99.90
22838;DHT22;11585;51.450;-0.240;2023-07-30T09:42:03;19.60;99.90
22838;DHT22;11585;51.450;-0.240;2023-07-30T09:44:32;19.60;99.90
22838;DHT22;11585;51.450;-0.240;2023-07-30T09:47:01;19.70;99.90
22838;DHT22;11585;51.450;-0.240;2023-07-30T09:49:30;19.70;99.90
22838;DHT22;11585;51.450;-0.240;2023-07-30T09:51:57;19.80;99.90
22838;DHT22;11585;51.450;-0.240;2023-07-30T09:54:23;19.80;99.90
22838;DHT22;11585;51.450;-0.240;2023-07-30T09:56:49;19.80;99.90
22838;DHT22;11585;51.450;-0.240;2023-07-30T09:59:15;19.80;99.90
22838;DHT22;11585;51.450;-0.240;2023-07-30T10:01:46;19.80;99.90
22838;DHT22;11585;51.450;-0.240;2023-07-30T10:04:15;19.80;99.90
22838;DHT22;11585;51.450;-0.240;2023-07-30T10:06:53;19.80;99.90
22838;DHT22;11585;51.450;-0.240;2023-07-30T10:09:21;19.90;99.90
22838;DHT22;11585;51.450;-0.240;2023-07-30T10:11:50;19.80;99.90
22838;DHT22;11585;51.450;-0.240;2023-07-30T10:14:19;19.90;99.90
22838;DHT22;11585;51.450;-0.240;2023-07-30T10:16:59;19.90;99.90
22838;DHT22;11585;51.450;-0.240;2023-07-30T10:19:27;19.80;99.90
22838;DHT22;11585;51.450;-0.240;2023-07-30T10:22:20;19.90;99.90
22838;DHT22;11585;51.450;-0.240;2023-07-30T10:25:03;19.90;99.90
22838;DHT22;11585;51.450;-0.240;2023-07-30T10:27:37;19.90;99.90
22838;DHT22;11585;51.450;-0.240;2023-07-30T10:30:14;19.90;99.90
22838;DHT22;11585;51.450;-0.240;2023-07-30T10:35:43;19.90;99.90
22838;DHT22;11585;51.450;-0.240;2023-07-30T10:38:20;19.90;99.90
22838;DHT22;11585;51.450;-0.240;2023-07-30T10:41:10;19.90;99.90
22838;DHT22;11585;51.450;-0.240;2023-07-30T10:43:42;19.90;99.90
22838;DHT22;11585;51.450;-0.240;2023-07-30T10:46:10;19.90;99.90
22838;DHT22;11585;51.450;-0.240;2023-07-30T10:48:44;19.90;99.90
22838;DHT22;11585;51.450;-0.240;2023-07-30T10:51:19;19.90;99.90
22838;DHT22;11585;51.450;-0.240;2023-07-30T10:53:47;19.90;99.90
22838;DHT22;11585;51.450;-0.240;2023-07-30T10:56:23;19.90;99.90
22838;DHT22;11585;51.450;-0.240;2023-07-30T10:58:52;19.90;99.90
22838;DHT22;11585;51.450;-0.240;2023-07-30T11:01:18;19.90;99.90
22838;DHT22;11585;51.450;-0.240;2023-07-30T11:03:48;19.90;99.90
22838;DHT22;11585;51.450;-0.240;2023-07-30T11:06:21;19.90;99.90
22838;DHT22;11585;51.450;-0.240;2023-07-30T11:08:48;20.00;99.90
22838;DHT22;11585;51.450;-0.240;2023-07-30T11:11:13;19.90;99.90
22838;DHT22;11585;51.450;-0.240;2023-07-30T11:13:44;20.00;99.90
22838;DHT22;11585;51.450;-0.240;2023-07-30T11:16:13;20.00;99.90
22838;DHT22;11585;51.450;-0.240;2023-07-30T11:18:40;20.00;99.90
22838;DHT22;11585;51.450;-0.240;2023-07-30T11:21:08;20.00;99.90
22838;DHT22;11585;51.450;-0.240;2023-07-30T11:23:35;20.00;99.90
22838;DHT22;11585;51.450;-0.240;2023-07-30T11:26:05;20.00;99.90
22838;DHT22;11585;51.450;-0.240;2023-07-30T11:28:33;20.00;99.90
22838;DHT22;11585;51.450;-0.240;2023-07-30T11:31:04;20.10;99.90
22838;DHT22;11585;51.450;-0.240;2023-07-30T11:33:31;20.10;99.90
22838;DHT22;11585;51.450;-0.240;2023-07-30T11:36:02;20.10;99.90
22838;DHT22;11585;51.450;-0.240;2023-07-30T11:38:28;20.10;99.90
22838;DHT22;11585;51.450;-0.240;2023-07-30T11:40:55;20.10;99.90
22838;DHT22;11585;51.450;-0.240;2023-07-30T11:43:21;20.00;99.90
22838;DHT22;11585;51.450;-0.240;2023-07-30T11:48:38;20.10;99.90
22838;DHT22;11585;51.450;-0.240;2023-07-30T11:51:04;20.10;99.90
22838;DHT22;11585;51.450;-0.240;2023-07-30T11:53:56;20.10;99.90
22838;DHT22;11585;51.450;-0.240;2023-07-30T11:56:29;20.10;99.90
22838;DHT22;11585;51.450;-0.240;2023-07-30T11:59:00;20.10;99.90
22838;DHT22;11585;51.450;-0.240;2023-07-30T12:01:31;20.10;99.90
22838;DHT22;11585;51.450;-0.240;2023-07-30T12:04:01;20.10;99.90
22838;DHT22;11585;51.450;-0.240;2023-07-30T12:06:47;20.10;99.90
22838;DHT22;11585;51.450;-0.240;2023-07-30T12:09:18;20.10;99.90
22838;DHT22;11585;51.450;-0.240;2023-07-30T12:11:58;20.10;99.90
22838;DHT22;11585;51.450;-0.240;2023-07-30T12:17:07;20.10;99.90
22838;DHT22;11585;51.450;-0.240;2023-07-30T12:19:33;20.10;99.90
22838;DHT22;11585;51.450;-0.240;2023-07-30T12:22:01;20.10;99.90
22838;DHT22;11585;51.450;-0.240;2023-07-30T12:24:27;20.10;99.90
22838;DHT22;11585;51.450;-0.240;2023-07-30T12:29:58;20.10;99.90
22838;DHT22;11585;51.450;-0.240;2023-07-30T12:32:24;20.10;99.90
22838;DHT22;11585;51.450;-0.240;2023-07-30T12:35:10;20.10;99.90
22838;DHT22;11585;51.450;-0.240;2023-07-30T12:37:35;20.10;99.90
22838;DHT22;11585;51.450;-0.240;2023-07-30T12:40:02;20.10;99.90
22838;DHT22;11585;51.450;-0.240;2023-07-30T12:42:29;20.10;99.90
22838;DHT22;11585;51.450;-0.240;2023-07-30T12:48:16;20.10;99.90
22838;DHT22;11585;51.450;-0.240;2023-07-30T12:54:04;20.10;99.90
22838;DHT22;11585;51.450;-0.240;2023-07-30T12:56:50;20.10;99.90
22838;DHT22;11585;51.450;-0.240;2023-07-30T12:59:15;20.10;99.90
22838;DHT22;11585;51.450;-0.240;2023-07-30T13:01:41;20.10;99.90
22838;DHT22;11585;51.450;-0.240;2023-07-30T13:04:06;20.10;99.90
22838;DHT22;11585;51.450;-0.240;2023-07-30T13:06:33;20.10;99.90
22838;DHT22;11585;51.450;-0.240;2023-07-30T13:08:59;20.10;99.90
22838;DHT22;11585;51.450;-0.240;2023-07-30T13:11:24;20.10;99.90
22838;DHT22;11585;51.450;-0.240;2023-07-30T13:13:50;20.10;99.90
22838;DHT22;11585;51.450;-0.240;2023-07-30T13:16:16;20.10;99.90
22838;DHT22;11585;51.450;-0.240;2023-07-30T13:18:41;20.10;99.90
22838;DHT22;11585;51.450;-0.240;2023-07-30T13:21:07;20.10;99.90
22838;DHT22;11585;51.450;-0.240;2023-07-30T13:23:32;20.10;99.90
22838;DHT22;11585;51.450;-0.240;2023-07-30T13:26:00;20.10;99.90
22838;DHT22;11585;51.450;-0.240;2023-07-30T13:28:25;20.10;99.90
22838;DHT22;11585;51.450;-0.240;2023-07-30T13:30:51;20.10;99.90
22838;DHT22;11585;51.450;-0.240;2023-07-30T13:33:18;20.20;99.90
22838;DHT22;11585;51.450;-0.240;2023-07-30T13:36:04;20.20;99.90
22838;DHT22;11585;51.450;-0.240;2023-07-30T13:38:30;20.20;99.90
22838;DHT22;11585;51.450;-0.240;2023-07-30T13:40:55;20.20;99.90
22838;DHT22;11585;51.450;-0.240;2023-07-30T13:43:21;20.20;99.90
22838;DHT22;11585;51.450;-0.240;2023-07-30T13:49:08;20.20;99.90
22838;DHT22;11585;51.450;-0.240;2023-07-30T13:51:34;20.20;99.90
22838;DHT22;11585;51.450;-0.240;2023-07-30T13:54:00;20.20;99.90
22838;DHT22;11585;51.450;-0.240;2023-07-30T13:59:48;20.20;99.90
22838;DHT22;11585;51.450;-0.240;2023-07-30T14:02:14;20.20;99.90
22838;DHT22;11585;51.450;-0.240;2023-07-30T14:04:39;20.20;99.90
22838;DHT22;11585;51.450;-0.240;2023-07-30T14:07:05;20.20;99.90
22838;DHT22;11585;51.450;-0.240;2023-07-30T14:09:30;20.20;99.90
22838;DHT22;11585;51.450;-0.240;2023-07-30T14:12:00;20.20;99.90
22838;DHT22;11585;51.450;-0.240;2023-07-30T14:14:25;20.20;99.90
22838;DHT22;11585;51.450;-0.240;2023-07-30T14:16:55;20.20;99.90
22838;DHT22;11585;51.450;-0.240;2023-07-30T14:19:20;20.20;99.90
22838;DHT22;11585;51.450;-0.240;2023-07-30T14:21:46;20.20;99.90
22838;DHT22;11585;51.450;-0.240;2023-07-30T14:24:12;20.20;99.90
22838;DHT22;11585;51.450;-0.240;2023-07-30T14:26:39;20.20;99.90
22838;DHT22;11585;51.450;-0.240;2023-07-30T14:29:04;20.20;99.90
22838;DHT22;11585;51.450;-0.240;2023-07-30T14:31:30;20.20;99.90
22838;DHT22;11585;51.450;-0.240;2023-07-30T14:33:56;20.20;99.90
22838;DHT22;11585;51.450;-0.240;2023-07-30T14:39:43;20.30;99.90
22838;DHT22;11585;51.450;-0.240;2023-07-30T14:42:10;20.20;99.90
22838;DHT22;11585;51.450;-0.240;2023-07-30T14:44:35;20.20;99.90
22838;DHT22;11585;51.450;-0.240;2023-07-30T14:47:20;20.20;99.90
22838;DHT22;11585;51.450;-0.240;2023-07-30T14:49:47;20.20;99.90
22838;DHT22;11585;51.450;-0.240;2023-07-30T14:52:13;20.20;99.90
22838;DHT22;11585;51.450;-0.240;2023-07-30T14:54:39;20.20;99.90
22838;DHT22;11585;51.450;-0.240;2023-07-30T14:57:05;20.20;99.90
22838;DHT22;11585;51.450;-0.240;2023-07-30T14:59:30;20.20;99.90
22838;DHT22;11585;51.450;-0.240;2023-07-30T15:01:56;20.20;99.90
22838;DHT22;11585;51.450;-0.240;2023-07-30T15:04:22;20.20;99.90
22838;DHT22;11585;51.450;-0.240;2023-07-30T15:10:12;20.20;99.90
22838;DHT22;11585;51.450;-0.240;2023-07-30T15:12:38;20.10;99.90
22838;DHT22;11585;51.450;-0.240;2023-07-30T15:47:21;19.80;99.90
22838;DHT22;11585;51.450;-0.240;2023-07-30T16:11:08;19.70;99.90
22838;DHT22;11585;51.450;-0.240;2023-07-30T16:21:20;19.70;99.90
22838;DHT22;11585;51.450;-0.240;2023-07-30T16:24:53;19.60;99.90
22838;DHT22;11585;51.450;-0.240;2023-07-30T16:27:34;19.60;99.90
22838;DHT22;11585;51.450;-0.240;2023-07-30T16:30:10;19.60;99.90
22838;DHT22;11585;51.450;-0.240;2023-07-30T16:36:04;19.70;99.90
22838;DHT22;11585;51.450;-0.240;2023-07-30T16:38:50;19.50;99.90
22838;DHT22;11585;51.450;-0.240;2023-07-30T16:41:38;19.80;99.90
22838;DHT22;11585;51.450;-0.240;2023-07-30T16:44:14;19.50;99.90
22838;DHT22;11585;51.450;-0.240;2023-07-30T16:50:12;19.50;99.90
22838;DHT22;11585;51.450;-0.240;2023-07-30T16:52:43;19.50;99.90
22838;DHT22;11585;51.450;-0.240;2023-07-30T16:58:16;19.50;99.90
22838;DHT22;11585;51.450;-0.240;2023-07-30T17:00:45;19.50;99.90
22838;DHT22;11585;51.450;-0.240;2023-07-30T17:03:19;19.40;99.90
22838;DHT22;11585;51.450;-0.240;2023-07-30T17:09:31;19.50;99.90
22838;DHT22;11585;51.450;-0.240;2023-07-30T17:12:06;19.40;99.90
22838;DHT22;11585;51.450;-0.240;2023-07-30T17:14:54;19.40;99.90
22838;DHT22;11585;51.450;-0.240;2023-07-30T17:17:40;19.40;99.90
22838;DHT22;11585;51.450;-0.240;2023-07-30T17:20:06;19.40;99.90
22838;DHT22;11585;51.450;-0.240;2023-07-30T17:22:35;19.40;99.90
22838;DHT22;11585;51.450;-0.240;2023-07-30T17:31:24;19.40;99.90
22838;DHT22;11585;51.450;-0.240;2023-07-30T17:33:50;19.30;99.90
22838;DHT22;11585;51.450;-0.240;2023-07-30T17:39:40;19.30;99.90
22838;DHT22;11585;51.450;-0.240;2023-07-30T17:42:10;19.30;99.90
22838;DHT22;11585;51.450;-0.240;2023-07-30T17:44:39;19.30;99.90
22838;DHT22;11585;51.450;-0.240;2023-07-30T17:47:12;19.30;99.90
22838;DHT22;11585;51.450;-0.240;2023-07-30T17:49:45;19.40;99.90
22838;DHT22;11585;51.450;-0.240;2023-07-30T17:52:14;19.40;99.90
22838;DHT22;11585;51.450;-0.240;2023-07-30T17:54:51;19.40;99.90
22838;DHT22;11585;51.450;-0.240;2023-07-30T17:57:19;19.40;99.90
22838;DHT22;11585;51.450;-0.240;2023-07-30T17:59:48;19.30;99.90
22838;DHT22;11585;51.450;-0.240;2023-07-30T18:02:16;19.40;99.90
22838;DHT22;11585;51.450;-0.240;2023-07-30T18:04:48;19.30;99.90
22838;DHT22;11585;51.450;-0.240;2023-07-30T18:07:16;19.30;99.90
22838;DHT22;11585;51.450;-0.240;2023-07-30T18:09:42;19.30;99.90
22838;DHT22;11585;51.450;-0.240;2023-07-30T18:12:10;19.30;99.90
22838;DHT22;11585;51.450;-0.240;2023-07-30T18:14:36;19.40;99.90
22838;DHT22;11585;51.450;-0.240;2023-07-30T18:17:04;19.30;99.90
22838;DHT22;11585;51.450;-0.240;2023-07-30T18:19:32;19.30;99.90
22838;DHT22;11585;51.450;-0.240;2023-07-30T18:21:58;19.30;99.90
22838;DHT22;11585;51.450;-0.240;2023-07-30T18:24:24;19.40;99.90
22838;DHT22;11585;51.450;-0.240;2023-07-30T18:26:54;19.40;99.90
22838;DHT22;11585;51.450;-0.240;2023-07-30T18:29:38;19.30;99.90
22838;DHT22;11585;51.450;-0.240;2023-07-30T18:32:08;19.40;99.90
22838;DHT22;11585;51.450;-0.240;2023-07-30T18:34:39;19.30;99.90
22838;DHT22;11585;51.450;-0.240;2023-07-30T18:37:05;19.40;99.90
22838;DHT22;11585;51.450;-0.240;2023-07-30T18:39:32;19.30;99.90
22838;DHT22;11585;51.450;-0.240;2023-07-30T18:42:00;19.30;99.90
22838;DHT22;11585;51.450;-0.240;2023-07-30T18:44:27;19.30;99.90
22838;DHT22;11585;51.450;-0.240;2023-07-30T18:46:56;19.30;99.90
22838;DHT22;11585;51.450;-0.240;2023-07-30T18:49:28;19.40;99.90
22838;DHT22;11585;51.450;-0.240;2023-07-30T18:51:56;19.30;99.90
22838;DHT22;11585;51.450;-0.240;2023-07-30T18:54:26;19.30;99.90
22838;DHT22;11585;51.450;-0.240;2023-07-30T18:59:59;19.30;99.90
22838;DHT22;11585;51.450;-0.240;2023-07-30T19:02:28;19.30;99.90
22838;DHT22;11585;51.450;-0.240;2023-07-30T19:08:31;19.30;99.90
22838;DHT22;11585;51.450;-0.240;2023-07-30T19:11:05;19.30;99.90
22838;DHT22;11585;51.450;-0.240;2023-07-30T19:14:08;19.30;99.90
22838;DHT22;11585;51.450;-0.240;2023-07-30T19:26:41;19.20;99.90
22838;DHT22;11585;51.450;-0.240;2023-07-30T19:29:47;19.20;99.90
22838;DHT22;11585;51.450;-0.240;2023-07-30T19:42:25;19.20;99.90
22838;DHT22;11585;51.450;-0.240;2023-07-30T19:51:50;19.20;99.90
22838;DHT22;11585;51.450;-0.240;2023-07-30T19:54:52;19.20;99.90